Terminal Aerodrome Forecast
Issued by NWS

Home | Current Version | Previous Version | Text Only | Print | Product List | Glossary Off
Versions: 1 2 3 4 5 6 7 8 9 10 11 12 13 14 15 16

758
FTUS43 KMPX 062341
TAFRNH
TAF
KRNH 062341Z 0700/0724 19013KT P6SM OVC080
     FM070300 20013KT P6SM -RA OVC050
     FM070600 22012G18KT P6SM BKN120
     FM071200 26014G21KT P6SM SCT020 OVC035
     FM072000 28016G26KT 2SM -SHSN OVC018=

USA.gov is the U.S. government's official web portal to all federal, state and local government web resources and services.